sensor_id;sensor_type;location;lat;lon;timestamp;pressure;altitude;pressure_sealevel;temperature;humidity
25944;BME280;13742;49.306;8.636;2023-01-27T00:00:50;100960.05;;;0.38;93.65
25944;BME280;13742;49.306;8.636;2023-01-27T00:01:47;100958.38;;;0.36;93.78
25944;BME280;13742;49.306;8.636;2023-01-27T00:02:46;100958.89;;;0.34;93.96
25944;BME280;13742;49.306;8.636;2023-01-27T00:03:46;100959.24;;;0.38;94.26
25944;BME280;13742;49.306;8.636;2023-01-27T00:04:46;100960.63;;;0.40;94.37
25944;BME280;13742;49.306;8.636;2023-01-27T00:05:46;100961.63;;;0.37;94.33
25944;BME280;13742;49.306;8.636;2023-01-27T00:06:46;100960.97;;;0.35;94.11
25944;BME280;13742;49.306;8.636;2023-01-27T00:07:46;100963.27;;;0.34;94.08
25944;BME280;13742;49.306;8.636;2023-01-27T00:08:46;100963.52;;;0.27;94.34
25944;BME280;13742;49.306;8.636;2023-01-27T00:09:46;100964.11;;;0.30;94.61
25944;BME280;13742;49.306;8.636;2023-01-27T00:11:01;100966.20;;;0.34;94.60
25944;BME280;13742;49.306;8.636;2023-01-27T00:11:51;100965.58;;;0.33;94.57
25944;BME280;13742;49.306;8.636;2023-01-27T00:12:51;100962.83;;;0.28;94.56
25944;BME280;13742;49.306;8.636;2023-01-27T00:13:46;100963.33;;;0.29;94.73
25944;BME280;13742;49.306;8.636;2023-01-27T00:14:46;100960.38;;;0.24;94.48
25944;BME280;13742;49.306;8.636;2023-01-27T00:15:46;100961.33;;;0.29;94.68
25944;BME280;13742;49.306;8.636;2023-01-27T00:16:46;100960.01;;;0.30;94.64
25944;BME280;13742;49.306;8.636;2023-01-27T00:17:46;100960.09;;;0.32;94.57
25944;BME280;13742;49.306;8.636;2023-01-27T00:18:46;100958.77;;;0.34;94.46
25944;BME280;13742;49.306;8.636;2023-01-27T00:19:46;100958.71;;;0.31;94.14
25944;BME280;13742;49.306;8.636;2023-01-27T00:20:51;100957.95;;;0.33;93.85
25944;BME280;13742;49.306;8.636;2023-01-27T00:21:51;100957.88;;;0.33;94.13
25944;BME280;13742;49.306;8.636;2023-01-27T00:22:51;100957.34;;;0.33;94.17
25944;BME280;13742;49.306;8.636;2023-01-27T00:23:51;100960.30;;;0.32;94.28
25944;BME280;13742;49.306;8.636;2023-01-27T00:24:46;100962.61;;;0.25;94.45
25944;BME280;13742;49.306;8.636;2023-01-27T00:25:49;100954.70;;;0.27;94.96
25944;BME280;13742;49.306;8.636;2023-01-27T00:26:46;100957.80;;;0.28;94.90
25944;BME280;13742;49.306;8.636;2023-01-27T00:27:46;100956.81;;;0.27;94.80
25944;BME280;13742;49.306;8.636;2023-01-27T00:28:46;100952.35;;;0.26;94.62
25944;BME280;13742;49.306;8.636;2023-01-27T00:29:46;100954.55;;;0.28;94.54
25944;BME280;13742;49.306;8.636;2023-01-27T00:30:46;100952.92;;;0.28;94.31
25944;BME280;13742;49.306;8.636;2023-01-27T00:31:51;100957.00;;;0.29;94.42
25944;BME280;13742;49.306;8.636;2023-01-27T00:32:51;100957.86;;;0.31;94.68
25944;BME280;13742;49.306;8.636;2023-01-27T00:33:48;100955.55;;;0.32;94.82
25944;BME280;13742;49.306;8.636;2023-01-27T00:34:46;100955.22;;;0.32;94.83
25944;BME280;13742;49.306;8.636;2023-01-27T00:35:46;100954.64;;;0.30;94.66
25944;BME280;13742;49.306;8.636;2023-01-27T00:36:46;100956.17;;;0.34;94.97
25944;BME280;13742;49.306;8.636;2023-01-27T00:37:46;100959.44;;;0.38;94.88
25944;BME280;13742;49.306;8.636;2023-01-27T00:38:46;100953.38;;;0.36;94.60
25944;BME280;13742;49.306;8.636;2023-01-27T00:39:46;100955.80;;;0.34;94.63
25944;BME280;13742;49.306;8.636;2023-01-27T00:41:01;100951.06;;;0.35;94.70
25944;BME280;13742;49.306;8.636;2023-01-27T00:41:46;100954.27;;;0.36;94.46
25944;BME280;13742;49.306;8.636;2023-01-27T00:42:46;100953.30;;;0.36;94.75
25944;BME280;13742;49.306;8.636;2023-01-27T00:43:46;100956.16;;;0.39;94.88
25944;BME280;13742;49.306;8.636;2023-01-27T00:45:01;100955.97;;;0.40;94.85
25944;BME280;13742;49.306;8.636;2023-01-27T00:45:50;100954.17;;;0.40;94.77
25944;BME280;13742;49.306;8.636;2023-01-27T00:46:46;100952.01;;;0.37;94.61
25944;BME280;13742;49.306;8.636;2023-01-27T00:47:47;100952.20;;;0.35;94.72
25944;BME280;13742;49.306;8.636;2023-01-27T00:48:46;100949.25;;;0.37;94.79
25944;BME280;13742;49.306;8.636;2023-01-27T00:49:46;100948.03;;;0.38;94.61
25944;BME280;13742;49.306;8.636;2023-01-27T00:50:46;100948.53;;;0.40;94.75
25944;BME280;13742;49.306;8.636;2023-01-27T00:51:46;100946.80;;;0.42;94.78
25944;BME280;13742;49.306;8.636;2023-01-27T00:52:46;100946.19;;;0.43;94.79
25944;BME280;13742;49.306;8.636;2023-01-27T00:53:46;100942.94;;;0.43;94.82
25944;BME280;13742;49.306;8.636;2023-01-27T00:54:46;100942.23;;;0.39;94.87
25944;BME280;13742;49.306;8.636;2023-01-27T00:55:46;100941.47;;;0.41;94.79
25944;BME280;13742;49.306;8.636;2023-01-27T00:56:46;100945.91;;;0.43;94.84
25944;BME280;13742;49.306;8.636;2023-01-27T00:57:46;100941.64;;;0.43;94.73
25944;BME280;13742;49.306;8.636;2023-01-27T00:58:46;100941.64;;;0.42;94.83
25944;BME280;13742;49.306;8.636;2023-01-27T00:59:46;100942.98;;;0.43;94.58
25944;BME280;13742;49.306;8.636;2023-01-27T01:00:46;100943.31;;;0.45;94.64
25944;BME280;13742;49.306;8.636;2023-01-27T01:01:46;100941.50;;;0.46;94.78
25944;BME280;13742;49.306;8.636;2023-01-27T01:02:46;100942.39;;;0.47;94.71
25944;BME280;13742;49.306;8.636;2023-01-27T01:03:46;100945.08;;;0.47;94.49
25944;BME280;13742;49.306;8.636;2023-01-27T01:04:46;100948.92;;;0.44;94.65
25944;BME280;13742;49.306;8.636;2023-01-27T01:05:46;100945.70;;;0.43;94.65
25944;BME280;13742;49.306;8.636;2023-01-27T01:06:46;100944.52;;;0.42;94.68
25944;BME280;13742;49.306;8.636;2023-01-27T01:07:46;100945.42;;;0.44;94.73
25944;BME280;13742;49.306;8.636;2023-01-27T01:08:47;100944.30;;;0.46;94.85
25944;BME280;13742;49.306;8.636;2023-01-27T01:09:46;100941.70;;;0.46;94.36
25944;BME280;13742;49.306;8.636;2023-01-27T01:10:46;100943.97;;;0.45;94.02
25944;BME280;13742;49.306;8.636;2023-01-27T01:11:46;100944.74;;;0.46;94.07
25944;BME280;13742;49.306;8.636;2023-01-27T01:12:46;100941.91;;;0.46;94.21
25944;BME280;13742;49.306;8.636;2023-01-27T01:13:46;100938.06;;;0.48;94.40
25944;BME280;13742;49.306;8.636;2023-01-27T01:14:46;100940.73;;;0.49;94.26
25944;BME280;13742;49.306;8.636;2023-01-27T01:15:46;100939.84;;;0.48;94.18
25944;BME280;13742;49.306;8.636;2023-01-27T01:16:46;100939.81;;;0.34;94.23
25944;BME280;13742;49.306;8.636;2023-01-27T01:17:46;100941.98;;;0.30;94.78
25944;BME280;13742;49.306;8.636;2023-01-27T01:18:46;100947.05;;;0.36;94.98
25944;BME280;13742;49.306;8.636;2023-01-27T01:19:46;100946.41;;;0.38;94.74
25944;BME280;13742;49.306;8.636;2023-01-27T01:20:46;100941.82;;;0.39;94.46
25944;BME280;13742;49.306;8.636;2023-01-27T01:21:46;100943.53;;;0.39;94.24
25944;BME280;13742;49.306;8.636;2023-01-27T01:22:46;100941.38;;;0.39;94.09
25944;BME280;13742;49.306;8.636;2023-01-27T01:23:46;100940.94;;;0.39;94.06
25944;BME280;13742;49.306;8.636;2023-01-27T01:24:46;100941.60;;;0.43;94.89
25944;BME280;13742;49.306;8.636;2023-01-27T01:26:46;100940.89;;;0.39;94.63
25944;BME280;13742;49.306;8.636;2023-01-27T01:27:46;100940.77;;;0.39;94.57
25944;BME280;13742;49.306;8.636;2023-01-27T01:28:46;100941.16;;;0.42;94.79
25944;BME280;13742;49.306;8.636;2023-01-27T01:29:46;100939.98;;;0.44;94.89
25944;BME280;13742;49.306;8.636;2023-01-27T01:30:46;100941.21;;;0.46;94.86
25944;BME280;13742;49.306;8.636;2023-01-27T01:31:49;100944.22;;;0.47;94.79
25944;BME280;13742;49.306;8.636;2023-01-27T01:32:46;100939.30;;;0.47;94.78
25944;BME280;13742;49.306;8.636;2023-01-27T01:33:46;100939.76;;;0.48;94.60
25944;BME280;13742;49.306;8.636;2023-01-27T01:34:46;100938.83;;;0.48;94.50
25944;BME280;13742;49.306;8.636;2023-01-27T01:35:46;100937.20;;;0.49;94.50
25944;BME280;13742;49.306;8.636;2023-01-27T01:36:46;100935.66;;;0.49;94.37
25944;BME280;13742;49.306;8.636;2023-01-27T01:37:46;100935.42;;;0.49;94.33
25944;BME280;13742;49.306;8.636;2023-01-27T01:38:46;100931.77;;;0.51;94.27
25944;BME280;13742;49.306;8.636;2023-01-27T01:39:46;100932.72;;;0.52;94.25
25944;BME280;13742;49.306;8.636;2023-01-27T01:40:46;100933.53;;;0.55;94.33
25944;BME280;13742;49.306;8.636;2023-01-27T01:41:46;100929.64;;;0.55;94.18
25944;BME280;13742;49.306;8.636;2023-01-27T01:42:53;100929.64;;;0.55;94.08
25944;BME280;13742;49.306;8.636;2023-01-27T01:43:47;100932.89;;;0.56;94.13
25944;BME280;13742;49.306;8.636;2023-01-27T01:44:46;100932.58;;;0.57;94.14
25944;BME280;13742;49.306;8.636;2023-01-27T01:45:50;100932.61;;;0.48;94.01
25944;BME280;13742;49.306;8.636;2023-01-27T01:46:46;100937.44;;;0.47;94.28
25944;BME280;13742;49.306;8.636;2023-01-27T01:47:46;100936.31;;;0.49;94.43
25944;BME280;13742;49.306;8.636;2023-01-27T01:48:47;100937.95;;;0.45;94.55
25944;BME280;13742;49.306;8.636;2023-01-27T01:49:46;100936.30;;;0.37;94.89
25944;BME280;13742;49.306;8.636;2023-01-27T01:50:47;100936.15;;;0.34;95.17
25944;BME280;13742;49.306;8.636;2023-01-27T01:51:47;100935.91;;;0.27;95.52
25944;BME280;13742;49.306;8.636;2023-01-27T01:52:46;100937.17;;;0.34;95.86
25944;BME280;13742;49.306;8.636;2023-01-27T01:53:51;100939.30;;;0.37;95.58
25944;BME280;13742;49.306;8.636;2023-01-27T01:55:46;100938.30;;;0.40;95.71
25944;BME280;13742;49.306;8.636;2023-01-27T01:57:46;100933.27;;;0.42;95.75
25944;BME280;13742;49.306;8.636;2023-01-27T01:58:46;100939.34;;;0.45;95.80
25944;BME280;13742;49.306;8.636;2023-01-27T01:59:47;100935.27;;;0.43;95.64
25944;BME280;13742;49.306;8.636;2023-01-27T02:00:46;100937.22;;;0.43;95.44
25944;BME280;13742;49.306;8.636;2023-01-27T02:01:46;100937.74;;;0.42;95.47
25944;BME280;13742;49.306;8.636;2023-01-27T02:02:46;100937.58;;;0.42;95.65
25944;BME280;13742;49.306;8.636;2023-01-27T02:03:47;100934.83;;;0.43;95.53
25944;BME280;13742;49.306;8.636;2023-01-27T02:05:46;100931.17;;;0.43;95.74
25944;BME280;13742;49.306;8.636;2023-01-27T02:06:51;100931.34;;;0.45;95.77
25944;BME280;13742;49.306;8.636;2023-01-27T02:07:52;100932.95;;;0.44;95.56
25944;BME280;13742;49.306;8.636;2023-01-27T02:08:46;100933.81;;;0.44;95.56
25944;BME280;13742;49.306;8.636;2023-01-27T02:09:46;100933.03;;;0.43;95.78
25944;BME280;13742;49.306;8.636;2023-01-27T02:10:46;100937.48;;;0.39;95.76
25944;BME280;13742;49.306;8.636;2023-01-27T02:11:46;100931.75;;;0.39;96.03
25944;BME280;13742;49.306;8.636;2023-01-27T02:12:46;100934.01;;;0.43;96.22
25944;BME280;13742;49.306;8.636;2023-01-27T02:13:46;100930.88;;;0.42;96.04
25944;BME280;13742;49.306;8.636;2023-01-27T02:14:46;100940.59;;;0.44;96.02
25944;BME280;13742;49.306;8.636;2023-01-27T02:15:46;100933.89;;;0.45;96.16
25944;BME280;13742;49.306;8.636;2023-01-27T02:16:46;100935.28;;;0.40;95.93
25944;BME280;13742;49.306;8.636;2023-01-27T02:17:46;100935.13;;;0.40;95.94
25944;BME280;13742;49.306;8.636;2023-01-27T02:18:46;100932.91;;;0.42;96.15
25944;BME280;13742;49.306;8.636;2023-01-27T02:20:47;100936.67;;;0.33;96.37
25944;BME280;13742;49.306;8.636;2023-01-27T02:21:46;100934.86;;;0.29;96.55
25944;BME280;13742;49.306;8.636;2023-01-27T02:24:46;100936.27;;;0.31;97.36
25944;BME280;13742;49.306;8.636;2023-01-27T02:26:46;100937.48;;;0.33;97.07
25944;BME280;13742;49.306;8.636;2023-01-27T02:27:46;100935.88;;;0.34;97.23
25944;BME280;13742;49.306;8.636;2023-01-27T02:28:51;100936.83;;;0.32;97.31
25944;BME280;13742;49.306;8.636;2023-01-27T02:29:46;100936.66;;;0.32;97.43
25944;BME280;13742;49.306;8.636;2023-01-27T02:30:46;100935.52;;;0.30;97.48
25944;BME280;13742;49.306;8.636;2023-01-27T02:31:46;100935.42;;;0.27;97.50
25944;BME280;13742;49.306;8.636;2023-01-27T02:32:46;100936.38;;;0.31;97.50
25944;BME280;13742;49.306;8.636;2023-01-27T02:33:46;100933.79;;;0.32;97.54
25944;BME280;13742;49.306;8.636;2023-01-27T02:34:46;100933.44;;;0.35;97.73
25944;BME280;13742;49.306;8.636;2023-01-27T02:36:51;100928.36;;;0.35;97.72
25944;BME280;13742;49.306;8.636;2023-01-27T02:37:46;100929.76;;;0.38;97.80
25944;BME280;13742;49.306;8.636;2023-01-27T02:38:47;100927.41;;;0.38;97.62
25944;BME280;13742;49.306;8.636;2023-01-27T02:39:46;100925.95;;;0.40;97.46
25944;BME280;13742;49.306;8.636;2023-01-27T02:40:47;100927.01;;;0.40;97.27
25944;BME280;13742;49.306;8.636;2023-01-27T02:41:49;100924.14;;;0.42;97.40
25944;BME280;13742;49.306;8.636;2023-01-27T02:42:46;100928.73;;;0.43;97.31
25944;BME280;13742;49.306;8.636;2023-01-27T02:43:46;100925.97;;;0.44;97.31
25944;BME280;13742;49.306;8.636;2023-01-27T02:44:46;100924.60;;;0.46;97.40
25944;BME280;13742;49.306;8.636;2023-01-27T02:45:46;100922.82;;;0.47;97.37
25944;BME280;13742;49.306;8.636;2023-01-27T02:46:46;100919.33;;;0.47;97.44
25944;BME280;13742;49.306;8.636;2023-01-27T02:47:46;100916.44;;;0.47;97.27
25944;BME280;13742;49.306;8.636;2023-01-27T02:48:46;100919.45;;;0.48;97.00
25944;BME280;13742;49.306;8.636;2023-01-27T02:49:46;100917.91;;;0.48;96.83
25944;BME280;13742;49.306;8.636;2023-01-27T02:50:46;100921.25;;;0.49;96.90
25944;BME280;13742;49.306;8.636;2023-01-27T02:51:46;100923.31;;;0.49;97.02
25944;BME280;13742;49.306;8.636;2023-01-27T02:52:46;100920.05;;;0.45;96.88
25944;BME280;13742;49.306;8.636;2023-01-27T02:53:46;100920.58;;;0.47;97.07
25944;BME280;13742;49.306;8.636;2023-01-27T02:54:46;100923.20;;;0.49;97.33
25944;BME280;13742;49.306;8.636;2023-01-27T02:55:46;100924.17;;;0.50;97.41
25944;BME280;13742;49.306;8.636;2023-01-27T02:56:46;100923.28;;;0.51;97.37
25944;BME280;13742;49.306;8.636;2023-01-27T02:57:46;100921.74;;;0.50;97.30
25944;BME280;13742;49.306;8.636;2023-01-27T02:58:46;100917.31;;;0.51;97.58
25944;BME280;13742;49.306;8.636;2023-01-27T02:59:46;100913.77;;;0.48;97.66
25944;BME280;13742;49.306;8.636;2023-01-27T03:00:46;100921.94;;;0.42;97.85
25944;BME280;13742;49.306;8.636;2023-01-27T03:01:46;100919.44;;;0.44;98.04
25944;BME280;13742;49.306;8.636;2023-01-27T03:02:46;100917.41;;;0.45;98.16
25944;BME280;13742;49.306;8.636;2023-01-27T03:03:46;100914.28;;;0.44;98.04
25944;BME280;13742;49.306;8.636;2023-01-27T03:04:46;100915.98;;;0.44;98.23
25944;BME280;13742;49.306;8.636;2023-01-27T03:05:46;100915.70;;;0.43;98.28
25944;BME280;13742;49.306;8.636;2023-01-27T03:06:46;100913.50;;;0.42;98.48
25944;BME280;13742;49.306;8.636;2023-01-27T03:07:46;100916.91;;;0.36;98.49
25944;BME280;13742;49.306;8.636;2023-01-27T03:08:46;100914.63;;;0.39;98.97
25944;BME280;13742;49.306;8.636;2023-01-27T03:09:46;100919.05;;;0.40;99.25
25944;BME280;13742;49.306;8.636;2023-01-27T03:10:49;100919.05;;;0.33;99.30
25944;BME280;13742;49.306;8.636;2023-01-27T03:11:51;100917.77;;;0.35;99.38
25944;BME280;13742;49.306;8.636;2023-01-27T03:12:46;100920.43;;;0.40;99.72
25944;BME280;13742;49.306;8.636;2023-01-27T03:13:46;100920.87;;;0.39;99.30
25944;BME280;13742;49.306;8.636;2023-01-27T03:14:51;100922.17;;;0.40;99.13
25944;BME280;13742;49.306;8.636;2023-01-27T03:15:51;100926.16;;;0.41;99.20
25944;BME280;13742;49.306;8.636;2023-01-27T03:16:51;100926.43;;;0.38;99.28
25944;BME280;13742;49.306;8.636;2023-01-27T03:17:51;100921.91;;;0.37;99.43
25944;BME280;13742;49.306;8.636;2023-01-27T03:18:48;100927.45;;;0.32;99.66
25944;BME280;13742;49.306;8.636;2023-01-27T03:19:52;100925.07;;;0.35;99.69
25944;BME280;13742;49.306;8.636;2023-01-27T03:20:46;100928.62;;;0.37;99.51
25944;BME280;13742;49.306;8.636;2023-01-27T03:21:49;100927.86;;;0.39;100.00
25944;BME280;13742;49.306;8.636;2023-01-27T03:22:46;100932.28;;;0.40;99.92
25944;BME280;13742;49.306;8.636;2023-01-27T03:23:47;100930.30;;;0.40;99.87
25944;BME280;13742;49.306;8.636;2023-01-27T03:24:46;100927.81;;;0.40;99.72
25944;BME280;13742;49.306;8.636;2023-01-27T03:25:46;100931.77;;;0.41;99.26
25944;BME280;13742;49.306;8.636;2023-01-27T03:26:46;100930.14;;;0.41;99.43
25944;BME280;13742;49.306;8.636;2023-01-27T03:27:46;100928.77;;;0.42;99.61
25944;BME280;13742;49.306;8.636;2023-01-27T03:29:01;100931.06;;;0.40;99.61
25944;BME280;13742;49.306;8.636;2023-01-27T03:29:51;100932.91;;;0.42;99.35
25944;BME280;13742;49.306;8.636;2023-01-27T03:30:46;100933.97;;;0.42;99.16
25944;BME280;13742;49.306;8.636;2023-01-27T03:31:46;100932.18;;;0.42;99.27
25944;BME280;13742;49.306;8.636;2023-01-27T03:32:46;100934.21;;;0.43;99.85
25944;BME280;13742;49.306;8.636;2023-01-27T03:33:46;100934.17;;;0.44;100.00
25944;BME280;13742;49.306;8.636;2023-01-27T03:34:46;100936.41;;;0.45;100.00
25944;BME280;13742;49.306;8.636;2023-01-27T03:35:48;100934.59;;;0.46;100.00
25944;BME280;13742;49.306;8.636;2023-01-27T03:36:51;100929.80;;;0.47;100.00
25944;BME280;13742;49.306;8.636;2023-01-27T03:37:51;100931.95;;;0.45;100.00
25944;BME280;13742;49.306;8.636;2023-01-27T03:38:51;100933.42;;;0.48;100.00
25944;BME280;13742;49.306;8.636;2023-01-27T03:39:51;100935.08;;;0.46;100.00
25944;BME280;13742;49.306;8.636;2023-01-27T03:40:51;100933.92;;;0.41;100.00
25944;BME280;13742;49.306;8.636;2023-01-27T03:41:51;100934.99;;;0.45;100.00
25944;BME280;13742;49.306;8.636;2023-01-27T03:42:51;100935.68;;;0.38;100.00
25944;BME280;13742;49.306;8.636;2023-01-27T03:43:51;100932.17;;;0.27;100.00
25944;BME280;13742;49.306;8.636;2023-01-27T03:44:51;100934.55;;;0.29;100.00
25944;BME280;13742;49.306;8.636;2023-01-27T03:45:51;100936.77;;;0.27;100.00
25944;BME280;13742;49.306;8.636;2023-01-27T03:46:46;100935.05;;;0.33;100.00
25944;BME280;13742;49.306;8.636;2023-01-27T03:47:46;100936.88;;;0.33;100.00
25944;BME280;13742;49.306;8.636;2023-01-27T03:48:47;100936.20;;;0.35;100.00
25944;BME280;13742;49.306;8.636;2023-01-27T03:49:46;100939.69;;;0.35;100.00
25944;BME280;13742;49.306;8.636;2023-01-27T03:50:52;100940.91;;;0.37;100.00
25944;BME280;13742;49.306;8.636;2023-01-27T03:51:46;100936.36;;;0.34;100.00
25944;BME280;13742;49.306;8.636;2023-01-27T03:53:01;100935.80;;;0.36;100.00
25944;BME280;13742;49.306;8.636;2023-01-27T03:53:46;100943.08;;;0.37;100.00
25944;BME280;13742;49.306;8.636;2023-01-27T03:54:46;100941.76;;;0.34;100.00
25944;BME280;13742;49.306;8.636;2023-01-27T03:55:46;100945.54;;;0.35;100.00
25944;BME280;13742;49.306;8.636;2023-01-27T03:56:46;100942.83;;;0.38;100.00
25944;BME280;13742;49.306;8.636;2023-01-27T03:57:46;100944.55;;;0.40;100.00
25944;BME280;13742;49.306;8.636;2023-01-27T03:58:47;100947.16;;;0.40;100.00
25944;BME280;13742;49.306;8.636;2023-01-27T03:59:46;100947.85;;;0.42;100.00
25944;BME280;13742;49.306;8.636;2023-01-27T04:00:50;100953.28;;;0.33;100.00
25944;BME280;13742;49.306;8.636;2023-01-27T04:01:46;100952.13;;;0.38;100.00
25944;BME280;13742;49.306;8.636;2023-01-27T04:02:51;100952.22;;;0.39;100.00
25944;BME280;13742;49.306;8.636;2023-01-27T04:03:51;100953.35;;;0.39;100.00
25944;BME280;13742;49.306;8.636;2023-01-27T04:04:51;100954.73;;;0.38;100.00
25944;BME280;13742;49.306;8.636;2023-01-27T04:05:51;100957.63;;;0.40;100.00
25944;BME280;13742;49.306;8.636;2023-01-27T04:06:51;100953.97;;;0.40;100.00
25944;BME280;13742;49.306;8.636;2023-01-27T04:07:46;100954.52;;;0.38;100.00
25944;BME280;13742;49.306;8.636;2023-01-27T04:08:46;100958.77;;;0.40;100.00
25944;BME280;13742;49.306;8.636;2023-01-27T04:09:46;100954.98;;;0.40;100.00
25944;BME280;13742;49.306;8.636;2023-01-27T04:11:04;100955.93;;;0.42;100.00
25944;BME280;13742;49.306;8.636;2023-01-27T04:11:51;100958.45;;;0.43;100.00
25944;BME280;13742;49.306;8.636;2023-01-27T04:12:46;100955.70;;;0.45;100.00
25944;BME280;13742;49.306;8.636;2023-01-27T04:13:46;100958.34;;;0.44;100.00
25944;BME280;13742;49.306;8.636;2023-01-27T04:14:46;100955.22;;;0.45;100.00
25944;BME280;13742;49.306;8.636;2023-01-27T04:15:46;100959.85;;;0.46;100.00
25944;BME280;13742;49.306;8.636;2023-01-27T04:16:46;100960.02;;;0.47;100.00
25944;BME280;13742;49.306;8.636;2023-01-27T04:17:46;100958.23;;;0.46;100.00
25944;BME280;13742;49.306;8.636;2023-01-27T04:18:46;100959.09;;;0.41;100.00
25944;BME280;13742;49.306;8.636;2023-01-27T04:19:46;100958.88;;;0.39;100.00
25944;BME280;13742;49.306;8.636;2023-01-27T04:20:46;100957.52;;;0.41;100.00
25944;BME280;13742;49.306;8.636;2023-01-27T04:21:46;100957.64;;;0.42;100.00
25944;BME280;13742;49.306;8.636;2023-01-27T04:22:46;100957.11;;;0.41;100.00
25944;BME280;13742;49.306;8.636;2023-01-27T04:23:46;100961.55;;;0.43;100.00
25944;BME280;13742;49.306;8.636;2023-01-27T04:24:46;100958.01;;;0.43;100.00
25944;BME280;13742;49.306;8.636;2023-01-27T04:25:46;100956.82;;;0.41;100.00
25944;BME280;13742;49.306;8.636;2023-01-27T04:26:46;100956.68;;;0.38;100.00
25944;BME280;13742;49.306;8.636;2023-01-27T04:27:46;100955.36;;;0.40;100.00
25944;BME280;13742;49.306;8.636;2023-01-27T04:28:46;100952.77;;;0.43;100.00
25944;BME280;13742;49.306;8.636;2023-01-27T04:29:46;100951.63;;;0.43;100.00
25944;BME280;13742;49.306;8.636;2023-01-27T04:30:46;100949.41;;;0.46;100.00
25944;BME280;13742;49.306;8.636;2023-01-27T04:31:46;100951.69;;;0.45;100.00
25944;BME280;13742;49.306;8.636;2023-01-27T04:32:46;100950.72;;;0.47;100.00
25944;BME280;13742;49.306;8.636;2023-01-27T04:33:46;100953.73;;;0.49;100.00
25944;BME280;13742;49.306;8.636;2023-01-27T04:34:46;100952.95;;;0.47;100.00
25944;BME280;13742;49.306;8.636;2023-01-27T04:35:46;100957.73;;;0.51;100.00
25944;BME280;13742;49.306;8.636;2023-01-27T04:36:46;100957.24;;;0.52;100.00
25944;BME280;13742;49.306;8.636;2023-01-27T04:37:46;100953.91;;;0.53;100.00
25944;BME280;13742;49.306;8.636;2023-01-27T04:38:46;100957.78;;;0.54;100.00
25944;BME280;13742;49.306;8.636;2023-01-27T04:39:46;100956.36;;;0.54;100.00
25944;BME280;13742;49.306;8.636;2023-01-27T04:40:46;100957.94;;;0.54;100.00
25944;BME280;13742;49.306;8.636;2023-01-27T04:41:47;100959.28;;;0.53;100.00
25944;BME280;13742;49.306;8.636;2023-01-27T04:42:46;100956.69;;;0.53;100.00
25944;BME280;13742;49.306;8.636;2023-01-27T04:43:46;100956.48;;;0.53;100.00
25944;BME280;13742;49.306;8.636;2023-01-27T04:44:46;100952.38;;;0.52;100.00
25944;BME280;13742;49.306;8.636;2023-01-27T04:45:46;100955.91;;;0.53;100.00
25944;BME280;13742;49.306;8.636;2023-01-27T04:46:46;100957.16;;;0.53;100.00
25944;BME280;13742;49.306;8.636;2023-01-27T04:47:46;100962.34;;;0.50;100.00
25944;BME280;13742;49.306;8.636;2023-01-27T04:48:46;100961.61;;;0.40;100.00
25944;BME280;13742;49.306;8.636;2023-01-27T04:49:46;100966.78;;;0.36;100.00
25944;BME280;13742;49.306;8.636;2023-01-27T04:50:46;100966.97;;;0.35;100.00
25944;BME280;13742;49.306;8.636;2023-01-27T04:51:46;100967.50;;;0.42;100.00
25944;BME280;13742;49.306;8.636;2023-01-27T04:52:46;100965.77;;;0.43;100.00
25944;BME280;13742;49.306;8.636;2023-01-27T04:53:46;100962.68;;;0.43;100.00
25944;BME280;13742;49.306;8.636;2023-01-27T04:54:46;100961.41;;;0.41;100.00
25944;BME280;13742;49.306;8.636;2023-01-27T04:55:46;100965.83;;;0.40;100.00
25944;BME280;13742;49.306;8.636;2023-01-27T04:57:46;100965.16;;;0.42;100.00
25944;BME280;13742;49.306;8.636;2023-01-27T04:58:46;100966.47;;;0.46;100.00
25944;BME280;13742;49.306;8.636;2023-01-27T04:59:46;100964.72;;;0.45;100.00
25944;BME280;13742;49.306;8.636;2023-01-27T05:00:46;100969.56;;;0.47;100.00
25944;BME280;13742;49.306;8.636;2023-01-27T05:01:46;100972.39;;;0.51;100.00
25944;BME280;13742;49.306;8.636;2023-01-27T05:02:46;100969.98;;;0.50;100.00
25944;BME280;13742;49.306;8.636;2023-01-27T05:03:46;100973.86;;;0.53;100.00
25944;BME280;13742;49.306;8.636;2023-01-27T05:04:46;100969.84;;;0.54;100.00
25944;BME280;13742;49.306;8.636;2023-01-27T05:05:46;100971.06;;;0.52;100.00
25944;BME280;13742;49.306;8.636;2023-01-27T05:06:46;100971.22;;;0.54;100.00
25944;BME280;13742;49.306;8.636;2023-01-27T05:07:46;100970.98;;;0.53;100.00
25944;BME280;13742;49.306;8.636;2023-01-27T05:08:46;100971.45;;;0.50;100.00
25944;BME280;13742;49.306;8.636;2023-01-27T05:09:46;100974.50;;;0.51;100.00
25944;BME280;13742;49.306;8.636;2023-01-27T05:10:46;100970.77;;;0.51;100.00
25944;BME280;13742;49.306;8.636;2023-01-27T05:11:46;100969.42;;;0.50;100.00
25944;BME280;13742;49.306;8.636;2023-01-27T05:12:46;100968.84;;;0.50;100.00
25944;BME280;13742;49.306;8.636;2023-01-27T05:13:46;100968.13;;;0.52;100.00
25944;BME280;13742;49.306;8.636;2023-01-27T05:14:46;100968.18;;;0.54;100.00
25944;BME280;13742;49.306;8.636;2023-01-27T05:15:46;100964.45;;;0.55;100.00
25944;BME280;13742;49.306;8.636;2023-01-27T05:16:46;100965.02;;;0.55;100.00
25944;BME280;13742;49.306;8.636;2023-01-27T05:17:46;100966.72;;;0.54;100.00
25944;BME280;13742;49.306;8.636;2023-01-27T05:18:46;100968.11;;;0.48;100.00
25944;BME280;13742;49.306;8.636;2023-01-27T05:19:46;100970.64;;;0.50;100.00
25944;BME280;13742;49.306;8.636;2023-01-27T05:20:46;100966.67;;;0.52;100.00
25944;BME280;13742;49.306;8.636;2023-01-27T05:21:46;100968.87;;;0.46;100.00
25944;BME280;13742;49.306;8.636;2023-01-27T05:22:46;100968.11;;;0.41;100.00
25944;BME280;13742;49.306;8.636;2023-01-27T05:23:46;100969.63;;;0.43;100.00
25944;BME280;13742;49.306;8.636;2023-01-27T05:24:46;100970.22;;;0.48;100.00
25944;BME280;13742;49.306;8.636;2023-01-27T05:25:46;100968.80;;;0.49;100.00
25944;BME280;13742;49.306;8.636;2023-01-27T05:26:46;100970.44;;;0.50;100.00